Time;durP1;ratioP1;P1;durP2;ratioP2;P2;SDS_P1;SDS_P2;PMS_P1;PMS_P2;Temp;Humidity;BMP_temperature;BMP_pressure;BME280_temperature;BME280_humidity;BME280_pressure;Samples;Min_cycle;Max_cycle;Signal;HPM_P1;HPM_P2
2021/05/04 00:01:00;;;;;;;3.90;3.53;;;8.20;1.00;;;;;;5067158;28;20103;-85
2021/05/04 00:03:37;;;;;;;4.43;2.88;;;8.20;1.00;;;;;;5070946;28;20021;-81
2021/05/04 00:06:02;;;;;;;3.83;3.15;;;8.20;99.90;;;;;;5074049;28;20075;-82
2021/05/04 00:08:28;;;;;;;3.03;2.83;;;8.20;1.00;;;;;;5062565;28;20090;-81
2021/05/04 00:10:54;;;;;;;3.60;3.30;;;8.20;99.90;;;;;;5071068;28;20031;-82
2021/05/04 00:13:20;;;;;;;2.92;2.60;;;8.20;1.00;;;;;;5051995;28;20060;-83
2021/05/04 00:15:46;;;;;;;5.55;3.28;;;8.20;99.90;;;;;;5068886;28;20092;-83
2021/05/04 00:18:12;;;;;;;3.33;2.63;;;8.30;99.90;;;;;;5069229;28;20040;-84
2021/05/04 00:20:37;;;;;;;3.97;3.20;;;8.30;99.90;;;;;;5072648;28;20048;-82
2021/05/04 00:23:03;;;;;;;3.30;2.53;;;8.40;99.90;;;;;;5069619;28;20033;-84
2021/05/04 00:25:29;;;;;;;3.55;3.08;;;8.40;99.90;;;;;;5069126;28;20051;-84
2021/05/04 00:27:54;;;;;;;3.42;2.78;;;8.30;99.90;;;;;;5068547;28;20032;-82
2021/05/04 00:30:20;;;;;;;4.18;2.97;;;8.30;99.90;;;;;;5061497;28;20022;-83
2021/05/04 00:32:46;;;;;;;4.38;3.38;;;8.40;99.90;;;;;;5062155;28;20075;-83
2021/05/04 00:35:12;;;;;;;4.05;2.78;;;8.40;99.90;;;;;;5070169;28;20028;-83
2021/05/04 00:37:37;;;;;;;2.88;2.55;;;8.40;99.90;;;;;;5059199;28;20417;-83
2021/05/04 00:40:04;;;;;;;3.33;3.03;;;8.40;99.90;;;;;;5061581;28;20024;-82
2021/05/04 00:42:30;;;;;;;4.57;2.85;;;8.30;1.00;;;;;;5069134;28;20488;-83
2021/05/04 00:44:56;;;;;;;4.78;3.10;;;8.30;1.00;;;;;;5071264;28;20095;-82
2021/05/04 00:47:21;;;;;;;3.45;3.00;;;8.30;1.00;;;;;;5067063;28;20021;-84
2021/05/04 00:49:47;;;;;;;6.82;2.95;;;8.20;1.00;;;;;;5065576;28;20081;-83
2021/05/04 00:52:13;;;;;;;3.22;2.85;;;8.10;1.00;;;;;;5060913;28;20118;-82
2021/05/04 00:54:40;;;;;;;3.38;3.08;;;8.10;1.00;;;;;;5035076;28;20056;-81
2021/05/04 00:57:08;;;;;;;3.67;3.22;;;8.10;1.00;;;;;;5062388;28;20029;-84
2021/05/04 00:59:36;;;;;;;3.03;2.72;;;8.10;1.00;;;;;;5069930;28;20033;-81
2021/05/04 01:02:02;;;;;;;3.20;2.60;;;8.10;1.00;;;;;;5064647;28;20029;-80
2021/05/04 01:04:28;;;;;;;3.15;2.85;;;8.10;1.00;;;;;;5052107;28;20052;-83
2021/05/04 01:06:54;;;;;;;3.88;2.80;;;8.00;1.00;;;;;;5060160;28;20059;-83
2021/05/04 01:09:20;;;;;;;7.45;3.22;;;7.90;1.00;;;;;;5047380;28;20481;-82
2021/05/04 01:11:47;;;;;;;4.53;3.65;;;7.80;1.00;;;;;;5042978;28;20262;-82
2021/05/04 01:14:13;;;;;;;3.63;3.28;;;7.80;5.20;;;;;;5068262;28;20017;-82
2021/05/04 01:16:43;;;;;;;4.47;3.13;;;7.80;14.30;;;;;;5067915;28;20045;-80
2021/05/04 01:19:12;;;;;;;3.53;3.23;;;7.80;16.00;;;;;;5060416;28;20001;-80
2021/05/04 01:21:37;;;;;;;3.75;2.85;;;7.80;15.80;;;;;;5073123;28;20039;-80
2021/05/04 01:24:04;;;;;;;3.38;3.08;;;7.70;21.70;;;;;;5073792;28;20021;-82
2021/05/04 01:26:30;;;;;;;5.10;3.25;;;7.70;25.20;;;;;;5065761;28;20023;-82
2021/05/04 01:28:55;;;;;;;3.33;2.95;;;7.70;73.50;;;;;;5075975;28;20021;-82
2021/05/04 01:31:21;;;;;;;5.68;3.58;;;7.70;87.50;;;;;;5075470;28;20092;-83
2021/05/04 01:33:46;;;;;;;5.28;3.05;;;7.80;41.30;;;;;;5075533;28;20036;-81
2021/05/04 01:36:12;;;;;;;5.05;4.63;;;7.70;85.70;;;;;;5072674;28;20039;-81
2021/05/04 01:38:38;;;;;;;5.10;4.60;;;7.90;93.50;;;;;;5070975;28;20051;-80
2021/05/04 01:41:04;;;;;;;11.32;6.47;;;8.00;90.10;;;;;;5064992;28;20043;-82
2021/05/04 01:43:29;;;;;;;9.32;6.68;;;8.10;98.60;;;;;;5074896;28;20041;-82
2021/05/04 01:45:55;;;;;;;8.48;5.88;;;7.80;99.90;;;;;;5069638;28;20070;-82
2021/05/04 01:48:21;;;;;;;10.32;7.22;;;7.70;99.90;;;;;;5072180;28;20064;-82
2021/05/04 01:50:46;;;;;;;7.78;6.80;;;7.70;99.90;;;;;;5072740;28;20093;-83
2021/05/04 01:53:12;;;;;;;12.00;7.25;;;7.60;99.90;;;;;;5076861;28;20021;-83
2021/05/04 01:55:38;;;;;;;8.18;6.22;;;7.50;99.90;;;;;;5078040;28;20017;-83
2021/05/04 01:58:03;;;;;;;8.10;7.30;;;7.40;99.90;;;;;;5077152;28;20025;-83
2021/05/04 02:00:29;;;;;;;6.97;6.15;;;7.30;99.90;;;;;;5072001;28;20047;-81
2021/05/04 02:02:55;;;;;;;7.93;5.60;;;7.20;99.90;;;;;;5070935;28;20025;-81
2021/05/04 02:05:21;;;;;;;7.63;6.35;;;7.10;99.90;;;;;;5070347;28;20021;-80
2021/05/04 02:07:47;;;;;;;6.65;6.00;;;7.00;99.90;;;;;;5071314;28;20025;-83
2021/05/04 02:10:12;;;;;;;6.30;5.70;;;7.00;99.90;;;;;;5064938;28;20028;-84
2021/05/04 02:12:42;;;;;;;6.68;5.15;;;7.00;99.90;;;;;;5076452;28;20012;-84
2021/05/04 02:15:10;;;;;;;4.93;4.53;;;7.00;99.90;;;;;;5078001;28;20881;-84
2021/05/04 02:17:36;;;;;;;5.05;4.43;;;7.00;99.90;;;;;;5077023;28;20019;-84
2021/05/04 02:20:03;;;;;;;8.65;5.03;;;7.20;99.90;;;;;;5050055;28;20021;-84
2021/05/04 02:22:28;;;;;;;4.43;4.07;;;7.30;99.90;;;;;;5070984;28;20047;-84
2021/05/04 02:24:54;;;;;;;4.70;4.30;;;7.40;99.90;;;;;;5064995;28;20044;-84
2021/05/04 02:27:20;;;;;;;4.78;4.25;;;7.40;99.90;;;;;;5061693;28;20025;-83
2021/05/04 02:29:45;;;;;;;4.82;3.67;;;7.50;99.90;;;;;;5042130;28;20036;-81
2021/05/04 02:32:11;;;;;;;4.38;3.58;;;7.50;99.90;;;;;;5053958;28;20033;-83
2021/05/04 02:34:37;;;;;;;4.93;3.53;;;7.50;99.90;;;;;;5061580;28;20523;-82
2021/05/04 02:37:03;;;;;;;5.53;3.83;;;7.60;99.90;;;;;;5053299;28;20030;-83
2021/05/04 02:39:29;;;;;;;5.47;3.42;;;7.60;99.90;;;;;;5041557;28;20041;-82
2021/05/04 02:41:54;;;;;;;6.15;4.38;;;7.70;99.90;;;;;;5053659;28;20021;-83
2021/05/04 02:44:20;;;;;;;5.68;4.15;;;7.70;99.90;;;;;;5041542;28;20079;-83
2021/05/04 02:46:46;;;;;;;8.15;5.38;;;7.70;99.90;;;;;;5060597;28;20044;-83
2021/05/04 02:49:11;;;;;;;8.13;4.60;;;7.70;99.90;;;;;;5046810;28;20159;-82
2021/05/04 02:51:37;;;;;;;6.28;4.88;;;7.70;99.90;;;;;;5047512;28;20029;-81
2021/05/04 02:54:04;;;;;;;9.88;5.13;;;7.70;99.90;;;;;;5050918;28;20045;-82
2021/05/04 02:56:29;;;;;;;6.18;4.90;;;7.70;99.90;;;;;;5058085;28;20029;-82
2021/05/04 02:58:55;;;;;;;4.97;4.47;;;7.70;99.90;;;;;;5070626;28;20024;-82
2021/05/04 03:01:21;;;;;;;7.05;4.95;;;7.80;99.90;;;;;;5067264;28;20505;-82
2021/05/04 03:03:46;;;;;;;5.75;5.15;;;7.80;99.90;;;;;;5055874;28;20026;-82
2021/05/04 03:06:12;;;;;;;7.82;5.05;;;7.70;99.90;;;;;;5069929;28;20025;-81
2021/05/04 03:08:37;;;;;;;5.55;4.22;;;7.80;99.90;;;;;;5066081;28;20157;-82
2021/05/04 03:11:03;;;;;;;8.73;5.30;;;7.80;99.90;;;;;;5069011;28;20041;-81
2021/05/04 03:13:31;;;;;;;6.90;5.80;;;7.70;99.90;;;;;;5070553;28;20094;-81
2021/05/04 03:15:58;;;;;;;8.23;6.38;;;7.80;99.90;;;;;;5076228;28;20013;-81
2021/05/04 03:18:24;;;;;;;8.57;6.07;;;7.80;99.90;;;;;;5061865;28;20016;-83
2021/05/04 03:20:54;;;;;;;7.10;6.15;;;7.80;99.90;;;;;;5062122;28;20025;-82
2021/05/04 03:23:21;;;;;;;11.15;6.75;;;7.80;99.90;;;;;;5063613;28;20075;-80
2021/05/04 03:25:47;;;;;;;11.95;6.57;;;7.80;99.90;;;;;;5064471;28;20107;-81
2021/05/04 03:28:14;;;;;;;10.57;6.10;;;7.80;99.90;;;;;;5073289;28;20005;-81
2021/05/04 03:30:40;;;;;;;6.97;5.95;;;7.60;99.90;;;;;;5052965;28;20374;-82
2021/05/04 03:33:06;;;;;;;7.65;6.47;;;7.80;99.90;;;;;;5065698;28;20104;-84
2021/05/04 03:35:32;;;;;;;8.23;6.88;;;7.70;99.90;;;;;;5065447;28;20098;-81
2021/05/04 03:37:59;;;;;;;6.95;6.25;;;7.60;99.90;;;;;;5066763;28;20294;-81
2021/05/04 03:40:25;;;;;;;8.68;7.28;;;7.50;99.90;;;;;;5068018;28;20056;-82
2021/05/04 03:42:50;;;;;;;9.13;6.35;;;7.40;99.90;;;;;;5065384;28;20029;-83
2021/05/04 03:45:16;;;;;;;6.32;5.78;;;7.50;99.90;;;;;;5073874;28;20037;-82
2021/05/04 03:47:43;;;;;;;9.57;6.03;;;7.50;99.90;;;;;;5058832;28;20052;-83
2021/05/04 03:50:16;;;;;;;7.47;5.18;;;7.50;99.90;;;;;;5079935;28;20009;-83
2021/05/04 03:52:42;;;;;;;5.70;5.13;;;7.50;99.90;;;;;;5071129;28;20041;-83
2021/05/04 03:55:10;;;;;;;6.75;6.03;;;7.50;99.90;;;;;;5080360;28;20033;-83
2021/05/04 03:57:36;;;;;;;10.05;5.07;;;7.70;99.90;;;;;;5076518;28;20101;-82
2021/05/04 04:00:03;;;;;;;5.63;5.03;;;7.70;99.90;;;;;;5068937;28;20037;-82
2021/05/04 04:02:29;;;;;;;6.43;5.30;;;7.60;99.90;;;;;;5050431;28;20040;-82
2021/05/04 04:04:54;;;;;;;5.63;4.28;;;7.70;99.90;;;;;;5074499;28;20041;-82
2021/05/04 04:07:20;;;;;;;7.57;4.43;;;7.80;94.00;;;;;;5067749;28;20032;-83
2021/05/04 04:09:46;;;;;;;4.70;3.75;;;7.90;97.00;;;;;;5076513;28;20028;-82
2021/05/04 04:12:11;;;;;;;5.78;3.42;;;8.10;40.80;;;;;;5071544;28;20032;-83
2021/05/04 04:14:37;;;;;;;4.93;3.30;;;8.10;35.40;;;;;;5073578;28;20089;-83
2021/05/04 04:17:03;;;;;;;5.43;3.40;;;8.20;8.30;;;;;;5076068;28;20032;-81
2021/05/04 04:19:28;;;;;;;4.18;2.40;;;8.30;1.00;;;;;;5059018;28;20080;-80
2021/05/04 04:21:54;;;;;;;2.97;2.35;;;8.40;1.00;;;;;;5063511;28;20024;-83
2021/05/04 04:24:20;;;;;;;3.33;2.17;;;8.50;1.00;;;;;;5077772;28;20089;-81
2021/05/04 04:26:45;;;;;;;3.75;3.25;;;8.60;99.90;;;;;;5077599;28;20032;-82
2021/05/04 04:29:11;;;;;;;4.05;2.40;;;8.70;99.90;;;;;;5078936;28;20033;-83
2021/05/04 04:31:37;;;;;;;2.50;2.25;;;8.80;99.90;;;;;;5066921;28;20033;-83
2021/05/04 04:34:03;;;;;;;2.72;2.53;;;8.90;99.90;;;;;;5074724;28;20048;-81
2021/05/04 04:36:29;;;;;;;3.10;2.45;;;9.00;99.90;;;;;;5051113;28;20005;-84
2021/05/04 04:38:55;;;;;;;2.40;1.77;;;9.00;99.90;;;;;;5075927;28;20040;-82
2021/05/04 04:41:20;;;;;;;2.25;2.03;;;9.00;99.90;;;;;;5071078;28;20117;-83
2021/05/04 04:43:46;;;;;;;3.65;2.05;;;9.20;99.70;;;;;;5069316;28;20030;-83
2021/05/04 04:46:12;;;;;;;2.35;1.90;;;9.30;9.10;;;;;;5053903;28;20022;-83
2021/05/04 04:48:38;;;;;;;3.70;2.03;;;9.30;1.00;;;;;;5052384;28;20111;-83
2021/05/04 04:51:04;;;;;;;3.33;2.25;;;9.30;1.00;;;;;;5070543;28;20048;-81
2021/05/04 04:53:30;;;;;;;3.30;2.10;;;9.40;1.00;;;;;;5069968;28;20089;-82
2021/05/04 04:55:55;;;;;;;3.22;2.20;;;9.40;1.00;;;;;;5069153;28;20081;-82
2021/05/04 04:58:21;;;;;;;2.20;1.67;;;9.30;1.00;;;;;;5062523;28;20029;-81
2021/05/04 05:00:47;;;;;;;2.63;2.42;;;9.30;1.00;;;;;;5066973;28;20025;-84
2021/05/04 05:03:12;;;;;;;2.28;2.08;;;9.40;1.00;;;;;;5078442;28;20068;-83
2021/05/04 05:05:38;;;;;;;4.22;2.30;;;9.50;1.00;;;;;;5064271;28;20104;-82
2021/05/04 05:08:04;;;;;;;3.05;1.92;;;9.50;1.00;;;;;;5066093;28;20051;-82
2021/05/04 05:10:29;;;;;;;4.63;2.83;;;9.50;1.00;;;;;;5054178;28;20068;-82
2021/05/04 05:12:55;;;;;;;2.28;2.15;;;9.50;99.90;;;;;;5061269;28;20052;-82
2021/05/04 05:15:21;;;;;;;3.00;2.00;;;9.60;99.90;;;;;;5053474;28;20439;-82
2021/05/04 05:17:46;;;;;;;4.25;2.20;;;9.60;99.90;;;;;;5066053;28;20080;-80
2021/05/04 05:20:13;;;;;;;4.07;2.63;;;9.70;99.90;;;;;;5063067;28;20036;-84
2021/05/04 05:22:42;;;;;;;4.50;1.83;;;9.80;1.00;;;;;;5063602;28;20076;-85
2021/05/04 05:25:11;;;;;;;6.18;2.40;;;9.80;1.00;;;;;;5064435;28;20028;-84
2021/05/04 05:27:37;;;;;;;2.53;2.20;;;9.90;1.00;;;;;;5063493;28;20032;-84
2021/05/04 05:30:06;;;;;;;4.80;2.20;;;9.90;1.00;;;;;;5062776;28;20017;-84
2021/05/04 05:32:32;;;;;;;2.55;2.00;;;9.90;99.90;;;;;;5062687;28;20460;-84
2021/05/04 05:34:57;;;;;;;2.63;2.13;;;10.00;99.90;;;;;;5071952;28;20043;-82
2021/05/04 05:37:23;;;;;;;3.33;2.10;;;10.10;99.90;;;;;;5061936;28;20052;-83
2021/05/04 05:39:49;;;;;;;2.75;2.10;;;10.20;4.50;;;;;;5064869;28;20021;-83
2021/05/04 05:42:14;;;;;;;2.70;2.30;;;10.30;1.00;;;;;;5064543;28;20028;-83
2021/05/04 05:44:40;;;;;;;7.18;2.50;;;10.40;99.90;;;;;;5063021;28;20032;-83
2021/05/04 05:47:06;;;;;;;3.60;1.90;;;10.40;99.90;;;;;;5104169;22;20051;-83
2021/05/04 05:49:32;;;;;;;2.58;2.22;;;10.50;21.10;;;;;;5069946;28;20029;-83
2021/05/04 05:51:58;;;;;;;2.40;2.20;;;10.60;1.00;;;;;;5058632;28;20125;-85
2021/05/04 05:54:24;;;;;;;6.72;2.75;;;10.70;1.00;;;;;;5047181;28;20470;-83
2021/05/04 05:56:50;;;;;;;4.30;2.42;;;10.80;1.00;;;;;;5025621;28;20030;-83
2021/05/04 05:59:16;;;;;;;4.80;2.50;;;10.90;63.80;;;;;;5055204;28;20105;-83
2021/05/04 06:01:42;;;;;;;6.85;2.13;;;10.90;1.00;;;;;;5041089;28;20036;-84
2021/05/04 06:04:08;;;;;;;3.83;2.40;;;11.00;1.00;;;;;;5054398;28;20034;-83
2021/05/04 06:06:34;;;;;;;4.75;2.72;;;11.10;1.00;;;;;;5037768;28;20048;-82
2021/05/04 06:08:59;;;;;;;2.95;2.22;;;11.20;99.90;;;;;;5034360;28;20010;-83
2021/05/04 06:11:25;;;;;;;7.68;2.28;;;11.20;99.90;;;;;;5054458;28;20072;-83
2021/05/04 06:13:54;;;;;;;2.55;2.20;;;11.30;1.00;;;;;;5038324;28;20037;-83
2021/05/04 06:16:20;;;;;;;5.07;1.98;;;11.40;99.90;;;;;;5031800;28;20081;-81
2021/05/04 06:18:46;;;;;;;9.88;2.22;;;11.60;99.90;;;;;;5045915;28;20044;-83
2021/05/04 06:21:12;;;;;;;2.38;2.17;;;11.70;84.30;;;;;;5042653;28;20052;-82
2021/05/04 06:23:37;;;;;;;6.10;2.30;;;11.80;1.00;;;;;;5046398;28;20389;-82
2021/05/04 06:26:04;;;;;;;2.20;2.00;;;11.90;99.90;;;;;;5045044;28;20045;-83
2021/05/04 06:28:30;;;;;;;2.90;1.95;;;12.00;99.90;;;;;;5043974;28;20394;-83
2021/05/04 06:30:56;;;;;;;3.25;1.85;;;12.30;1.00;;;;;;5043640;28;20033;-83
2021/05/04 06:33:22;;;;;;;5.35;2.28;;;12.40;1.00;;;;;;5034585;28;20227;-82
2021/05/04 06:35:51;;;;;;;2.60;1.80;;;12.40;99.90;;;;;;5051127;28;20017;-83
2021/05/04 06:38:18;;;;;;;3.22;1.90;;;12.60;99.90;;;;;;5036509;28;20038;-85
2021/05/04 06:40:50;;;;;;;2.10;1.75;;;12.60;99.90;;;;;;5094874;22;20037;-83
2021/05/04 06:43:19;;;;;;;4.78;1.65;;;12.60;22.20;;;;;;5065888;28;20089;-82
2021/05/04 06:45:48;;;;;;;3.35;1.90;;;12.70;1.00;;;;;;5056000;28;20017;-83
2021/05/04 06:48:16;;;;;;;2.70;1.60;;;12.70;1.00;;;;;;5046740;28;20037;-83
2021/05/04 06:50:42;;;;;;;2.83;1.70;;;12.90;1.00;;;;;;5043117;28;20026;-83
2021/05/04 06:53:11;;;;;;;2.85;1.40;;;13.00;1.00;;;;;;5043755;28;20036;-81
2021/05/04 06:55:37;;;;;;;3.28;1.65;;;13.00;1.00;;;;;;5049349;28;20137;-82
2021/05/04 06:58:06;;;;;;;3.45;1.58;;;13.10;99.90;;;;;;5043296;28;20034;-84
2021/05/04 07:00:32;;;;;;;2.53;1.73;;;13.20;99.90;;;;;;5053358;28;20064;-82
2021/05/04 07:03:02;;;;;;;3.80;1.50;;;13.20;99.90;;;;;;5050495;28;20034;-82
2021/05/04 07:05:31;;;;;;;4.00;1.50;;;13.30;99.90;;;;;;5059654;28;20027;-84
2021/05/04 07:07:57;;;;;;;3.40;1.83;;;13.40;99.90;;;;;;5042076;28;20029;-84
2021/05/04 07:10:26;;;;;;;3.10;1.70;;;13.40;99.90;;;;;;5058393;28;20071;-83
2021/05/04 07:12:52;;;;;;;2.33;1.45;;;13.50;99.90;;;;;;5051637;28;20025;-73
2021/05/04 07:15:17;;;;;;;3.83;1.48;;;13.60;99.90;;;;;;5043858;28;20025;-75
2021/05/04 07:17:43;;;;;;;2.70;1.50;;;13.80;99.90;;;;;;5040857;28;20025;-74
2021/05/04 07:20:09;;;;;;;4.43;1.30;;;13.80;86.20;;;;;;5038811;28;20028;-75
2021/05/04 07:22:36;;;;;;;3.13;1.58;;;13.80;84.30;;;;;;5043433;28;20021;-74
2021/05/04 07:25:01;;;;;;;4.90;1.80;;;13.90;44.20;;;;;;5040414;28;20481;-74
2021/05/04 07:27:27;;;;;;;2.10;1.80;;;14.00;1.00;;;;;;5033937;28;20028;-74
2021/05/04 07:29:52;;;;;;;1.60;1.50;;;14.20;1.00;;;;;;5031269;28;20125;-75
2021/05/04 07:32:18;;;;;;;1.67;1.42;;;14.30;1.00;;;;;;5033167;28;20018;-74
2021/05/04 07:34:49;;;;;;;4.63;1.65;;;14.40;1.00;;;;;;5041598;28;20401;-79
2021/05/04 07:37:15;;;;;;;3.47;1.55;;;14.60;1.00;;;;;;5038325;28;20067;-78
2021/05/04 07:39:41;;;;;;;2.15;1.33;;;14.70;1.00;;;;;;5054246;28;20047;-76
2021/05/04 07:42:09;;;;;;;2.78;1.55;;;14.80;1.00;;;;;;5047149;28;20057;-77
2021/05/04 07:44:34;;;;;;;3.28;1.60;;;15.00;1.00;;;;;;5040565;28;20056;-76
2021/05/04 07:47:00;;;;;;;4.28;1.73;;;15.20;99.90;;;;;;5051659;28;20033;-76
2021/05/04 07:49:59;;;;;;;4.55;1.30;;;15.60;99.90;;;;;;5048770;28;20017;-75
2021/05/04 07:52:18;;;;;;;2.35;1.20;;;15.80;99.90;;;;;;5039389;28;20449;-76
2021/05/04 07:54:43;;;;;;;1.27;1.20;;;15.80;99.90;;;;;;5039107;28;20032;-75
2021/05/04 07:57:10;;;;;;;4.53;1.25;;;16.00;99.90;;;;;;5050955;28;20097;-78
2021/05/04 07:59:36;;;;;;;5.55;1.30;;;16.10;99.90;;;;;;5045521;28;20037;-76
2021/05/04 08:02:02;;;;;;;4.95;1.60;;;16.10;99.90;;;;;;5048526;28;20033;-76
2021/05/04 08:04:29;;;;;;;3.30;1.33;;;16.20;99.90;;;;;;5040934;28;20076;-76
2021/05/04 08:07:00;;;;;;;3.22;1.00;;;16.20;99.90;;;;;;5050648;28;20017;-77
2021/05/04 08:09:27;;;;;;;;;;;16.40;99.90;;;;;;5048820;28;20017;-75
2021/05/04 08:11:53;;;;;;;2.78;1.27;;;16.20;99.90;;;;;;5051701;28;19904;-76
2021/05/04 08:14:18;;;;;;;3.72;1.27;;;16.30;99.90;;;;;;5048626;28;20064;-76
2021/05/04 08:16:44;;;;;;;1.98;1.73;;;16.20;99.90;;;;;;5055458;28;20077;-76
2021/05/04 08:19:09;;;;;;;2.70;1.30;;;16.30;99.90;;;;;;5046146;28;20021;-75
2021/05/04 08:21:36;;;;;;;2.65;1.30;;;16.30;99.90;;;;;;5046004;28;20025;-74
2021/05/04 08:24:02;;;;;;;6.93;2.17;;;16.30;99.90;;;;;;5038347;28;20032;-78
2021/05/04 08:26:28;;;;;;;6.45;1.30;;;16.40;99.90;;;;;;5044527;28;20022;-77
2021/05/04 08:28:57;;;;;;;4.00;0.93;;;16.60;99.90;;;;;;5049016;28;20031;-77
2021/05/04 08:31:24;;;;;;;2.40;1.02;;;16.60;99.90;;;;;;5047052;28;20025;-77
2021/05/04 08:33:50;;;;;;;3.80;1.27;;;16.70;99.90;;;;;;5053053;28;20041;-77
2021/05/04 08:36:16;;;;;;;2.38;1.33;;;16.90;99.90;;;;;;5050480;28;20044;-76
2021/05/04 08:38:41;;;;;;;2.22;1.40;;;17.00;99.90;;;;;;5043551;28;20022;-76
2021/05/04 08:41:09;;;;;;;6.70;1.63;;;17.00;99.90;;;;;;5044966;28;20451;-76
2021/05/04 08:43:35;;;;;;;1.60;1.05;;;17.10;99.90;;;;;;5047308;28;20029;-77
2021/05/04 08:46:02;;;;;;;2.63;1.33;;;17.10;99.90;;;;;;5047618;28;20439;-77
2021/05/04 08:48:28;;;;;;;2.50;1.08;;;17.10;99.90;;;;;;5047682;28;20056;-76
2021/05/04 08:50:56;;;;;;;2.78;1.15;;;17.10;99.90;;;;;;5045392;28;20029;-76
2021/05/04 08:53:22;;;;;;;3.28;1.00;;;17.20;99.90;;;;;;5039674;28;20393;-77
2021/05/04 08:55:48;;;;;;;2.10;1.10;;;17.30;99.90;;;;;;5048881;28;20096;-75
2021/05/04 08:58:13;;;;;;;0.95;0.90;;;17.30;99.90;;;;;;5047160;28;20079;-75
2021/05/04 09:00:40;;;;;;;3.67;1.50;;;17.30;99.90;;;;;;5041940;28;20033;-76
2021/05/04 09:03:15;;;;;;;4.70;1.23;;;17.30;99.90;;;;;;5035746;28;20101;-76
2021/05/04 09:05:48;;;;;;;1.77;1.60;;;17.20;99.90;;;;;;5048908;28;20017;-76
2021/05/04 09:08:46;;;;;;;1.58;1.08;;;17.20;99.90;;;;;;5042848;28;20021;-76
2021/05/04 09:11:36;;;;;;;6.80;1.27;;;17.10;99.90;;;;;;5037575;28;20026;-77
2021/05/04 09:17:17;;;;;;;1.98;1.20;;;16.90;99.90;;;;;;5052385;28;20032;-76
2021/05/04 09:22:17;;;;;;;1.90;0.98;;;17.00;99.90;;;;;;5052410;28;20075;-76
2021/05/04 09:24:44;;;;;;;2.90;1.20;;;17.00;99.90;;;;;;5037233;28;20117;-77
2021/05/04 09:27:16;;;;;;;1.40;1.30;;;17.10;99.90;;;;;;5042333;28;20021;-76
2021/05/04 09:29:55;;;;;;;1.20;1.10;;;17.10;99.90;;;;;;5049322;28;20025;-77
2021/05/04 09:32:27;;;;;;;2.67;1.50;;;17.30;99.90;;;;;;5057978;28;20511;-76
2021/05/04 09:35:04;;;;;;;1.23;1.08;;;17.30;99.90;;;;;;5057203;28;20021;-77
2021/05/04 09:37:39;;;;;;;7.60;1.27;;;17.30;99.90;;;;;;5051569;28;20051;-76
2021/05/04 09:40:27;;;;;;;1.58;1.30;;;17.30;99.90;;;;;;5064766;28;20388;-76
2021/05/04 09:43:00;;;;;;;2.25;1.00;;;17.60;99.90;;;;;;5057742;28;20049;-76
2021/05/04 09:45:26;;;;;;;4.15;1.90;;;17.90;99.90;;;;;;5046061;28;20504;-77
2021/05/04 09:48:22;;;;;;;4.90;1.23;;;18.20;99.90;;;;;;5044358;28;20512;-77
2021/05/04 09:50:50;;;;;;;2.53;1.10;;;18.50;99.90;;;;;;5040110;28;20037;-76
2021/05/04 09:53:24;;;;;;;4.45;1.27;;;18.50;99.90;;;;;;5048408;28;20013;-77
2021/05/04 09:55:55;;;;;;;1.50;1.25;;;18.50;99.90;;;;;;5047694;28;20028;-77
2021/05/04 09:58:34;;;;;;;4.93;1.83;;;18.60;99.90;;;;;;5050722;28;20105;-76
2021/05/04 10:01:02;;;;;;;1.35;1.00;;;18.70;97.10;;;;;;5053451;28;20028;-77
2021/05/04 10:03:28;;;;;;;3.50;0.90;;;18.60;93.40;;;;;;5051328;28;20481;-76
2021/05/04 10:05:57;;;;;;;1.75;0.93;;;18.30;87.30;;;;;;5042666;28;20052;-79
2021/05/04 10:08:24;;;;;;;2.30;0.95;;;18.10;85.80;;;;;;5040452;28;20021;-78
2021/05/04 10:10:50;;;;;;;6.57;1.50;;;17.90;83.10;;;;;;5047618;28;20104;-76
2021/05/04 10:13:17;;;;;;;4.80;1.13;;;17.80;83.30;;;;;;5047412;28;20045;-78
2021/05/04 10:15:44;;;;;;;2.70;1.00;;;17.90;81.90;;;;;;5041646;28;20029;-78
2021/05/04 10:18:11;;;;;;;1.58;0.98;;;18.00;84.80;;;;;;5033682;28;20391;-77
2021/05/04 10:20:37;;;;;;;0.95;0.90;;;17.90;82.50;;;;;;5044270;28;20021;-76
2021/05/04 10:23:04;;;;;;;7.00;1.00;;;17.90;80.90;;;;;;5051200;28;20097;-78
2021/05/04 10:25:31;;;;;;;1.50;1.02;;;18.00;79.70;;;;;;5046155;28;20101;-77
2021/05/04 10:27:57;;;;;;;3.55;1.42;;;17.90;75.90;;;;;;5042126;28;20481;-78
2021/05/04 10:30:24;;;;;;;1.65;1.15;;;17.90;72.90;;;;;;5051014;28;20047;-77
2021/05/04 10:32:54;;;;;;;2.55;1.17;;;17.80;72.10;;;;;;5053490;28;20079;-77
2021/05/04 10:35:28;;;;;;;7.93;2.10;;;17.90;72.70;;;;;;5055241;28;20084;-77
2021/05/04 10:38:11;;;;;;;1.52;1.08;;;18.20;72.30;;;;;;5057408;28;20040;-79
2021/05/04 10:40:58;;;;;;;1.90;1.00;;;18.30;69.60;;;;;;5058421;28;20072;-79
2021/05/04 10:43:23;;;;;;;2.25;1.27;;;18.40;70.90;;;;;;5052149;28;20006;-77
2021/05/04 10:45:53;;;;;;;4.47;1.20;;;18.40;69.30;;;;;;5060415;28;20408;-77
2021/05/04 10:48:41;;;;;;;3.90;1.17;;;18.50;69.30;;;;;;5050740;28;20033;-78
2021/05/04 10:51:10;;;;;;;3.95;1.50;;;18.40;68.10;;;;;;5048162;28;20027;-78
2021/05/04 10:53:51;;;;;;;6.53;1.10;;;18.60;67.90;;;;;;5050443;28;20049;-78
2021/05/04 10:56:30;;;;;;;3.15;1.08;;;18.90;68.10;;;;;;5044606;28;20051;-77
2021/05/04 10:58:55;;;;;;;4.78;1.40;;;18.90;65.50;;;;;;5047906;28;20025;-77
2021/05/04 11:01:21;;;;;;;2.22;1.10;;;18.60;61.00;;;;;;5075395;28;20056;-79
2021/05/04 11:03:51;;;;;;;2.92;1.00;;;18.60;62.50;;;;;;5075325;28;20021;-78
2021/05/04 11:06:26;;;;;;;3.30;2.22;;;18.90;64.90;;;;;;5074823;28;20031;-78
2021/05/04 11:08:51;;;;;;;7.15;1.40;;;19.00;60.60;;;;;;5069740;28;20025;-78
2021/05/04 11:11:36;;;;;;;1.65;1.13;;;18.70;56.10;;;;;;5061998;28;20018;-78
2021/05/04 11:14:16;;;;;;;2.13;1.15;;;18.90;54.90;;;;;;5072141;28;20081;-78
2021/05/04 11:16:47;;;;;;;8.20;1.30;;;18.90;53.90;;;;;;5062400;28;20022;-76
2021/05/04 11:19:16;;;;;;;2.97;1.25;;;18.70;52.80;;;;;;5078243;28;20001;-77
2021/05/04 11:22:11;;;;;;;2.15;1.17;;;18.70;50.80;;;;;;5079816;28;20040;-77
2021/05/04 11:24:44;;;;;;;3.40;1.05;;;18.30;49.30;;;;;;5072339;28;20067;-78
2021/05/04 11:27:09;;;;;;;5.57;1.10;;;18.30;50.40;;;;;;5061972;28;20021;-76
2021/05/04 11:29:36;;;;;;;1.40;1.10;;;18.40;50.20;;;;;;5070315;28;20048;-76
2021/05/04 11:32:20;;;;;;;5.90;1.10;;;18.60;50.60;;;;;;5060331;28;20048;-78
2021/05/04 11:35:16;;;;;;;1.65;1.35;;;18.50;47.00;;;;;;5073849;28;20070;-76
2021/05/04 11:37:46;;;;;;;4.50;1.35;;;18.60;47.50;;;;;;5062229;28;20044;-76
2021/05/04 11:40:18;;;;;;;2.90;1.20;;;18.40;46.60;;;;;;5080411;28;20028;-77
2021/05/04 11:42:45;;;;;;;1.55;1.10;;;18.40;49.90;;;;;;5078766;28;20025;-75
2021/05/04 11:45:18;;;;;;;0.85;0.80;;;18.50;52.50;;;;;;5072508;28;20064;-78
2021/05/04 11:47:49;;;;;;;5.45;1.50;;;18.30;52.50;;;;;;5058476;28;20013;-77
2021/05/04 11:50:20;;;;;;;2.92;0.90;;;18.40;53.00;;;;;;5060286;28;20048;-77
2021/05/04 11:52:55;;;;;;;1.00;0.90;;;18.40;52.10;;;;;;5060271;28;20090;-78
2021/05/04 11:55:20;;;;;;;6.22;1.20;;;18.50;55.50;;;;;;5070661;28;20028;-76
2021/05/04 11:57:57;;;;;;;7.65;1.30;;;18.50;55.70;;;;;;5078098;28;20029;-77
2021/05/04 12:00:24;;;;;;;3.60;1.45;;;18.30;54.20;;;;;;5067506;28;20029;-76
2021/05/04 12:02:50;;;;;;;1.08;0.98;;;18.50;57.60;;;;;;5070396;28;20033;-76
2021/05/04 12:05:24;;;;;;;1.50;1.40;;;18.40;57.30;;;;;;5070462;28;20536;-75
2021/05/04 12:07:50;;;;;;;2.40;1.20;;;18.20;58.40;;;;;;5071694;28;20017;-74
2021/05/04 12:10:16;;;;;;;2.15;1.33;;;17.90;59.80;;;;;;5062406;28;20045;-74
2021/05/04 12:12:46;;;;;;;2.45;1.48;;;17.70;67.50;;;;;;5077720;28;20088;-75
2021/05/04 12:15:14;;;;;;;1.52;1.10;;;17.60;73.20;;;;;;5062516;28;20006;-75
2021/05/04 12:17:40;;;;;;;2.20;0.90;;;17.80;80.40;;;;;;5066660;28;20040;-76
2021/05/04 12:20:17;;;;;;;1.38;1.00;;;17.80;83.00;;;;;;5061118;28;20045;-75
2021/05/04 12:22:47;;;;;;;3.22;1.35;;;17.80;85.20;;;;;;5071948;28;20040;-75
2021/05/04 12:25:15;;;;;;;3.38;1.10;;;17.90;90.00;;;;;;5069063;28;20019;-76
2021/05/04 12:27:45;;;;;;;5.45;1.02;;;17.60;90.40;;;;;;5059977;28;20048;-74
2021/05/04 12:30:20;;;;;;;2.13;1.10;;;17.50;93.80;;;;;;5059425;28;20025;-75
2021/05/04 12:32:47;;;;;;;1.45;1.05;;;17.50;98.20;;;;;;5061522;28;20021;-75
2021/05/04 12:35:16;;;;;;;0.88;0.80;;;17.90;99.90;;;;;;5059363;28;20475;-76
2021/05/04 12:37:43;;;;;;;2.17;1.33;;;18.10;99.90;;;;;;5077968;28;20028;-76
2021/05/04 12:40:19;;;;;;;1.05;0.73;;;18.00;99.90;;;;;;5063339;28;20037;-75
2021/05/04 12:42:48;;;;;;;1.15;1.05;;;17.20;99.90;;;;;;5062586;28;20037;-76
2021/05/04 12:45:15;;;;;;;2.38;1.20;;;16.90;99.90;;;;;;5071277;28;20029;-75
2021/05/04 12:47:54;;;;;;;1.20;1.08;;;16.80;99.90;;;;;;5068417;28;20021;-76
2021/05/04 12:50:27;;;;;;;1.13;1.02;;;17.00;99.90;;;;;;5062456;28;20030;-76
2021/05/04 12:52:53;;;;;;;0.90;0.80;;;17.00;99.90;;;;;;5058791;28;20009;-76
2021/05/04 12:55:19;;;;;;;1.13;1.02;;;16.80;99.90;;;;;;5051967;28;20036;-75
2021/05/04 12:57:45;;;;;;;2.83;1.55;;;16.70;99.90;;;;;;5060236;28;20032;-76
2021/05/04 13:00:15;;;;;;;2.30;1.17;;;17.00;99.90;;;;;;5063021;28;20033;-76
2021/05/04 13:02:41;;;;;;;2.70;1.83;;;16.90;99.90;;;;;;5054486;28;20563;-76